sensor_id;sensor_type;location;lat;lon;timestamp;P1;durP1;ratioP1;P2;durP2;ratioP2
17892;SDS011;9072;51.918;4.380;2023-11-19T00:01:54;29.90;;;7.80;;
17892;SDS011;9072;51.918;4.380;2023-11-19T00:04:25;27.60;;;8.00;;
17892;SDS011;9072;51.918;4.380;2023-11-19T00:06:56;25.07;;;7.23;;
17892;SDS011;9072;51.918;4.380;2023-11-19T00:09:33;37.80;;;8.63;;
17892;SDS011;9072;51.918;4.380;2023-11-19T00:12:02;32.23;;;7.83;;
17892;SDS011;9072;51.918;4.380;2023-11-19T00:14:30;30.13;;;7.93;;
17892;SDS011;9072;51.918;4.380;2023-11-19T00:17:00;27.23;;;7.83;;
17892;SDS011;9072;51.918;4.380;2023-11-19T00:19:29;31.43;;;7.40;;
17892;SDS011;9072;51.918;4.380;2023-11-19T00:21:57;26.70;;;7.33;;
17892;SDS011;9072;51.918;4.380;2023-11-19T00:24:28;34.97;;;7.43;;
17892;SDS011;9072;51.918;4.380;2023-11-19T00:27:01;32.33;;;6.50;;
17892;SDS011;9072;51.918;4.380;2023-11-19T00:29:29;39.10;;;7.30;;
17892;SDS011;9072;51.918;4.380;2023-11-19T00:32:03;32.13;;;6.93;;
17892;SDS011;9072;51.918;4.380;2023-11-19T00:34:32;33.17;;;7.97;;
17892;SDS011;9072;51.918;4.380;2023-11-19T00:37:00;32.93;;;7.50;;
17892;SDS011;9072;51.918;4.380;2023-11-19T00:39:29;35.73;;;7.30;;
17892;SDS011;9072;51.918;4.380;2023-11-19T00:41:59;55.63;;;8.27;;
17892;SDS011;9072;51.918;4.380;2023-11-19T00:44:27;53.80;;;8.37;;
17892;SDS011;9072;51.918;4.380;2023-11-19T00:47:00;58.03;;;9.80;;
17892;SDS011;9072;51.918;4.380;2023-11-19T00:49:29;54.00;;;9.23;;
17892;SDS011;9072;51.918;4.380;2023-11-19T00:52:00;52.43;;;9.53;;
17892;SDS011;9072;51.918;4.380;2023-11-19T00:54:27;69.50;;;10.10;;
17892;SDS011;9072;51.918;4.380;2023-11-19T00:56:57;61.13;;;9.27;;
17892;SDS011;9072;51.918;4.380;2023-11-19T00:59:26;53.37;;;10.03;;
17892;SDS011;9072;51.918;4.380;2023-11-19T01:01:55;59.10;;;9.63;;
17892;SDS011;9072;51.918;4.380;2023-11-19T01:04:24;59.63;;;9.33;;
17892;SDS011;9072;51.918;4.380;2023-11-19T01:06:53;55.93;;;8.70;;
17892;SDS011;9072;51.918;4.380;2023-11-19T01:09:21;57.87;;;9.37;;
17892;SDS011;9072;51.918;4.380;2023-11-19T01:11:53;60.53;;;10.77;;
17892;SDS011;9072;51.918;4.380;2023-11-19T01:14:21;61.33;;;10.20;;
17892;SDS011;9072;51.918;4.380;2023-11-19T01:16:49;56.30;;;10.23;;
17892;SDS011;9072;51.918;4.380;2023-11-19T01:19:19;57.73;;;10.47;;
17892;SDS011;9072;51.918;4.380;2023-11-19T01:21:49;61.10;;;10.43;;
17892;SDS011;9072;51.918;4.380;2023-11-19T01:24:18;55.43;;;9.90;;
17892;SDS011;9072;51.918;4.380;2023-11-19T01:26:46;61.63;;;9.63;;
17892;SDS011;9072;51.918;4.380;2023-11-19T01:29:16;60.83;;;9.63;;
17892;SDS011;9072;51.918;4.380;2023-11-19T01:31:45;63.77;;;10.53;;
17892;SDS011;9072;51.918;4.380;2023-11-19T01:34:14;59.10;;;9.77;;
17892;SDS011;9072;51.918;4.380;2023-11-19T01:36:41;57.00;;;10.93;;
17892;SDS011;9072;51.918;4.380;2023-11-19T01:39:12;63.47;;;10.27;;
17892;SDS011;9072;51.918;4.380;2023-11-19T01:41:49;62.10;;;10.17;;
17892;SDS011;9072;51.918;4.380;2023-11-19T01:44:17;60.80;;;9.63;;
17892;SDS011;9072;51.918;4.380;2023-11-19T01:46:45;58.40;;;9.93;;
17892;SDS011;9072;51.918;4.380;2023-11-19T01:49:14;61.30;;;10.83;;
17892;SDS011;9072;51.918;4.380;2023-11-19T01:51:42;60.73;;;10.80;;
17892;SDS011;9072;51.918;4.380;2023-11-19T01:54:13;58.03;;;9.87;;
17892;SDS011;9072;51.918;4.380;2023-11-19T01:56:45;71.70;;;11.27;;
17892;SDS011;9072;51.918;4.380;2023-11-19T01:59:21;56.47;;;10.20;;
17892;SDS011;9072;51.918;4.380;2023-11-19T02:01:52;60.33;;;9.63;;
17892;SDS011;9072;51.918;4.380;2023-11-19T02:04:20;68.20;;;11.37;;
17892;SDS011;9072;51.918;4.380;2023-11-19T02:06:48;61.17;;;10.23;;
17892;SDS011;9072;51.918;4.380;2023-11-19T02:09:19;63.97;;;10.80;;
17892;SDS011;9072;51.918;4.380;2023-11-19T02:11:49;60.37;;;10.10;;
17892;SDS011;9072;51.918;4.380;2023-11-19T02:14:21;65.40;;;11.33;;
17892;SDS011;9072;51.918;4.380;2023-11-19T02:16:56;67.20;;;10.87;;
17892;SDS011;9072;51.918;4.380;2023-11-19T02:19:24;55.10;;;10.67;;
17892;SDS011;9072;51.918;4.380;2023-11-19T02:21:52;71.70;;;10.80;;
17892;SDS011;9072;51.918;4.380;2023-11-19T02:24:21;57.43;;;11.07;;
17892;SDS011;9072;51.918;4.380;2023-11-19T02:26:57;71.07;;;11.87;;
17892;SDS011;9072;51.918;4.380;2023-11-19T02:29:33;59.90;;;11.57;;
17892;SDS011;9072;51.918;4.380;2023-11-19T02:32:01;64.77;;;11.30;;
17892;SDS011;9072;51.918;4.380;2023-11-19T02:34:35;61.70;;;10.30;;
17892;SDS011;9072;51.918;4.380;2023-11-19T02:37:03;66.73;;;12.10;;
17892;SDS011;9072;51.918;4.380;2023-11-19T02:39:31;59.50;;;10.13;;
17892;SDS011;9072;51.918;4.380;2023-11-19T02:41:58;51.63;;;9.70;;
17892;SDS011;9072;51.918;4.380;2023-11-19T02:44:26;48.13;;;9.07;;
17892;SDS011;9072;51.918;4.380;2023-11-19T02:46:59;62.53;;;10.87;;
17892;SDS011;9072;51.918;4.380;2023-11-19T02:49:28;54.20;;;10.57;;
17892;SDS011;9072;51.918;4.380;2023-11-19T02:51:57;50.80;;;9.47;;
17892;SDS011;9072;51.918;4.380;2023-11-19T02:54:25;54.00;;;10.00;;
17892;SDS011;9072;51.918;4.380;2023-11-19T02:56:54;51.20;;;8.90;;
17892;SDS011;9072;51.918;4.380;2023-11-19T02:59:27;49.07;;;9.17;;
17892;SDS011;9072;51.918;4.380;2023-11-19T03:02:05;60.33;;;9.77;;
17892;SDS011;9072;51.918;4.380;2023-11-19T03:04:41;54.27;;;10.17;;
17892;SDS011;9072;51.918;4.380;2023-11-19T03:07:10;55.67;;;9.50;;
17892;SDS011;9072;51.918;4.380;2023-11-19T03:09:39;62.93;;;9.97;;
17892;SDS011;9072;51.918;4.380;2023-11-19T03:12:10;60.67;;;10.47;;
17892;SDS011;9072;51.918;4.380;2023-11-19T03:14:41;58.80;;;10.47;;
17892;SDS011;9072;51.918;4.380;2023-11-19T03:17:14;62.43;;;10.90;;
17892;SDS011;9072;51.918;4.380;2023-11-19T03:19:49;57.70;;;10.60;;
17892;SDS011;9072;51.918;4.380;2023-11-19T03:22:18;60.67;;;9.87;;
17892;SDS011;9072;51.918;4.380;2023-11-19T03:24:46;56.77;;;9.50;;
17892;SDS011;9072;51.918;4.380;2023-11-19T03:27:13;70.93;;;11.27;;
17892;SDS011;9072;51.918;4.380;2023-11-19T03:29:41;67.00;;;11.27;;
17892;SDS011;9072;51.918;4.380;2023-11-19T03:32:13;58.93;;;10.90;;
17892;SDS011;9072;51.918;4.380;2023-11-19T03:34:40;62.00;;;10.30;;
17892;SDS011;9072;51.918;4.380;2023-11-19T03:37:15;50.53;;;10.13;;
17892;SDS011;9072;51.918;4.380;2023-11-19T03:39:44;55.83;;;9.50;;
17892;SDS011;9072;51.918;4.380;2023-11-19T03:42:14;65.57;;;10.43;;
17892;SDS011;9072;51.918;4.380;2023-11-19T03:44:41;60.23;;;10.30;;
17892;SDS011;9072;51.918;4.380;2023-11-19T03:47:09;63.70;;;11.10;;
17892;SDS011;9072;51.918;4.380;2023-11-19T03:49:38;55.20;;;9.80;;
17892;SDS011;9072;51.918;4.380;2023-11-19T03:52:05;49.00;;;9.60;;
17892;SDS011;9072;51.918;4.380;2023-11-19T03:54:34;55.23;;;9.27;;
17892;SDS011;9072;51.918;4.380;2023-11-19T03:57:02;48.70;;;9.60;;
17892;SDS011;9072;51.918;4.380;2023-11-19T03:59:30;58.67;;;10.53;;
17892;SDS011;9072;51.918;4.380;2023-11-19T04:01:58;58.77;;;9.37;;
17892;SDS011;9072;51.918;4.380;2023-11-19T04:04:29;54.60;;;9.80;;
17892;SDS011;9072;51.918;4.380;2023-11-19T04:06:59;50.33;;;9.27;;
17892;SDS011;9072;51.918;4.380;2023-11-19T04:09:29;50.67;;;8.93;;
17892;SDS011;9072;51.918;4.380;2023-11-19T04:11:58;59.03;;;10.80;;
17892;SDS011;9072;51.918;4.380;2023-11-19T04:14:26;53.77;;;10.23;;
17892;SDS011;9072;51.918;4.380;2023-11-19T04:16:54;51.20;;;9.47;;
17892;SDS011;9072;51.918;4.380;2023-11-19T04:19:22;50.03;;;9.37;;
17892;SDS011;9072;51.918;4.380;2023-11-19T04:21:53;52.57;;;9.80;;
17892;SDS011;9072;51.918;4.380;2023-11-19T04:24:24;61.13;;;11.07;;
17892;SDS011;9072;51.918;4.380;2023-11-19T04:26:52;60.07;;;10.37;;
17892;SDS011;9072;51.918;4.380;2023-11-19T04:29:22;54.17;;;9.83;;
17892;SDS011;9072;51.918;4.380;2023-11-19T04:31:50;60.10;;;9.87;;
17892;SDS011;9072;51.918;4.380;2023-11-19T04:34:17;54.53;;;8.77;;
17892;SDS011;9072;51.918;4.380;2023-11-19T04:36:45;54.20;;;10.30;;
17892;SDS011;9072;51.918;4.380;2023-11-19T04:39:13;61.13;;;10.87;;
17892;SDS011;9072;51.918;4.380;2023-11-19T04:41:49;55.20;;;10.30;;
17892;SDS011;9072;51.918;4.380;2023-11-19T04:44:25;58.07;;;9.77;;
17892;SDS011;9072;51.918;4.380;2023-11-19T04:46:54;53.30;;;10.23;;
17892;SDS011;9072;51.918;4.380;2023-11-19T04:49:22;56.37;;;10.20;;
17892;SDS011;9072;51.918;4.380;2023-11-19T04:51:52;67.03;;;11.67;;
17892;SDS011;9072;51.918;4.380;2023-11-19T04:54:20;55.77;;;10.03;;
17892;SDS011;9072;51.918;4.380;2023-11-19T04:56:49;50.10;;;10.20;;
17892;SDS011;9072;51.918;4.380;2023-11-19T04:59:16;64.93;;;10.67;;
17892;SDS011;9072;51.918;4.380;2023-11-19T05:01:46;62.23;;;10.77;;
17892;SDS011;9072;51.918;4.380;2023-11-19T05:04:15;58.87;;;12.17;;
17892;SDS011;9072;51.918;4.380;2023-11-19T05:06:45;59.90;;;9.83;;
17892;SDS011;9072;51.918;4.380;2023-11-19T05:09:13;50.43;;;10.37;;
17892;SDS011;9072;51.918;4.380;2023-11-19T05:11:40;61.63;;;11.13;;
17892;SDS011;9072;51.918;4.380;2023-11-19T05:14:12;56.27;;;10.23;;
17892;SDS011;9072;51.918;4.380;2023-11-19T05:16:40;53.80;;;9.80;;
17892;SDS011;9072;51.918;4.380;2023-11-19T05:19:08;57.43;;;10.30;;
17892;SDS011;9072;51.918;4.380;2023-11-19T05:21:37;53.93;;;9.50;;
17892;SDS011;9072;51.918;4.380;2023-11-19T05:24:04;57.93;;;11.43;;
17892;SDS011;9072;51.918;4.380;2023-11-19T05:26:33;51.97;;;10.17;;
17892;SDS011;9072;51.918;4.380;2023-11-19T05:29:00;69.40;;;10.13;;
17892;SDS011;9072;51.918;4.380;2023-11-19T05:31:34;45.87;;;8.73;;
17892;SDS011;9072;51.918;4.380;2023-11-19T05:34:01;52.47;;;8.90;;
17892;SDS011;9072;51.918;4.380;2023-11-19T05:36:29;52.07;;;10.53;;
17892;SDS011;9072;51.918;4.380;2023-11-19T05:38:56;57.47;;;9.57;;
17892;SDS011;9072;51.918;4.380;2023-11-19T05:41:24;64.53;;;10.23;;
17892;SDS011;9072;51.918;4.380;2023-11-19T05:43:54;54.13;;;9.47;;
17892;SDS011;9072;51.918;4.380;2023-11-19T05:46:22;55.93;;;9.77;;
17892;SDS011;9072;51.918;4.380;2023-11-19T05:49:03;51.47;;;8.63;;
17892;SDS011;9072;51.918;4.380;2023-11-19T05:51:30;56.93;;;9.90;;
17892;SDS011;9072;51.918;4.380;2023-11-19T05:54:02;56.00;;;9.87;;
17892;SDS011;9072;51.918;4.380;2023-11-19T05:56:32;57.00;;;9.63;;
17892;SDS011;9072;51.918;4.380;2023-11-19T05:59:00;53.10;;;9.73;;
17892;SDS011;9072;51.918;4.380;2023-11-19T06:01:32;50.70;;;8.83;;
17892;SDS011;9072;51.918;4.380;2023-11-19T06:04:03;48.77;;;8.97;;
17892;SDS011;9072;51.918;4.380;2023-11-19T06:06:37;53.57;;;9.67;;
17892;SDS011;9072;51.918;4.380;2023-11-19T06:09:07;59.57;;;9.27;;
17892;SDS011;9072;51.918;4.380;2023-11-19T06:11:51;49.30;;;9.03;;
17892;SDS011;9072;51.918;4.380;2023-11-19T06:14:22;53.60;;;9.60;;
17892;SDS011;9072;51.918;4.380;2023-11-19T06:16:53;51.33;;;9.47;;
17892;SDS011;9072;51.918;4.380;2023-11-19T06:19:22;49.70;;;8.70;;
17892;SDS011;9072;51.918;4.380;2023-11-19T06:21:55;61.73;;;8.43;;
17892;SDS011;9072;51.918;4.380;2023-11-19T06:24:25;44.77;;;7.67;;
17892;SDS011;9072;51.918;4.380;2023-11-19T06:26:53;45.47;;;8.30;;
17892;SDS011;9072;51.918;4.380;2023-11-19T06:29:21;50.73;;;8.20;;
17892;SDS011;9072;51.918;4.380;2023-11-19T06:31:49;44.60;;;8.33;;
17892;SDS011;9072;51.918;4.380;2023-11-19T06:34:17;44.37;;;9.10;;
17892;SDS011;9072;51.918;4.380;2023-11-19T06:36:46;51.33;;;8.57;;
17892;SDS011;9072;51.918;4.380;2023-11-19T06:39:15;42.57;;;8.00;;
17892;SDS011;9072;51.918;4.380;2023-11-19T06:41:48;46.73;;;8.63;;
17892;SDS011;9072;51.918;4.380;2023-11-19T06:44:15;37.87;;;8.07;;
17892;SDS011;9072;51.918;4.380;2023-11-19T06:46:58;48.80;;;8.20;;
17892;SDS011;9072;51.918;4.380;2023-11-19T06:49:25;43.17;;;7.77;;
17892;SDS011;9072;51.918;4.380;2023-11-19T06:51:54;47.70;;;9.50;;
17892;SDS011;9072;51.918;4.380;2023-11-19T06:54:25;42.00;;;8.90;;
17892;SDS011;9072;51.918;4.380;2023-11-19T06:56:54;48.47;;;7.47;;
17892;SDS011;9072;51.918;4.380;2023-11-19T06:59:24;45.80;;;8.23;;
17892;SDS011;9072;51.918;4.380;2023-11-19T07:01:52;50.50;;;8.33;;
17892;SDS011;9072;51.918;4.380;2023-11-19T07:04:23;45.70;;;9.13;;
17892;SDS011;9072;51.918;4.380;2023-11-19T07:06:51;39.23;;;8.80;;
17892;SDS011;9072;51.918;4.380;2023-11-19T07:09:27;34.57;;;7.20;;
17892;SDS011;9072;51.918;4.380;2023-11-19T07:11:57;47.67;;;8.93;;
17892;SDS011;9072;51.918;4.380;2023-11-19T07:14:38;41.77;;;8.13;;
17892;SDS011;9072;51.918;4.380;2023-11-19T07:17:07;41.43;;;9.10;;
17892;SDS011;9072;51.918;4.380;2023-11-19T07:19:36;44.97;;;7.77;;
17892;SDS011;9072;51.918;4.380;2023-11-19T07:22:04;36.87;;;7.03;;
17892;SDS011;9072;51.918;4.380;2023-11-19T07:24:34;50.70;;;8.70;;
17892;SDS011;9072;51.918;4.380;2023-11-19T07:27:05;45.13;;;9.43;;
17892;SDS011;9072;51.918;4.380;2023-11-19T07:29:35;45.83;;;8.00;;
17892;SDS011;9072;51.918;4.380;2023-11-19T07:32:06;39.63;;;7.60;;
17892;SDS011;9072;51.918;4.380;2023-11-19T07:34:36;39.20;;;7.63;;
17892;SDS011;9072;51.918;4.380;2023-11-19T07:37:09;40.67;;;7.63;;
17892;SDS011;9072;51.918;4.380;2023-11-19T07:39:39;42.93;;;7.77;;
17892;SDS011;9072;51.918;4.380;2023-11-19T07:42:11;45.87;;;8.67;;
17892;SDS011;9072;51.918;4.380;2023-11-19T07:44:39;39.97;;;7.97;;
17892;SDS011;9072;51.918;4.380;2023-11-19T07:47:06;36.40;;;7.10;;
17892;SDS011;9072;51.918;4.380;2023-11-19T07:49:36;32.70;;;6.97;;
17892;SDS011;9072;51.918;4.380;2023-11-19T07:52:05;37.63;;;7.50;;
17892;SDS011;9072;51.918;4.380;2023-11-19T07:54:33;40.30;;;7.23;;
17892;SDS011;9072;51.918;4.380;2023-11-19T07:57:04;38.97;;;7.83;;
17892;SDS011;9072;51.918;4.380;2023-11-19T07:59:32;41.03;;;8.37;;
17892;SDS011;9072;51.918;4.380;2023-11-19T08:02:14;34.90;;;6.60;;
17892;SDS011;9072;51.918;4.380;2023-11-19T08:04:44;40.53;;;8.67;;
17892;SDS011;9072;51.918;4.380;2023-11-19T08:07:18;47.97;;;8.37;;
17892;SDS011;9072;51.918;4.380;2023-11-19T08:09:45;39.37;;;7.43;;
17892;SDS011;9072;51.918;4.380;2023-11-19T08:12:17;37.53;;;6.90;;
17892;SDS011;9072;51.918;4.380;2023-11-19T08:14:45;52.60;;;8.27;;
17892;SDS011;9072;51.918;4.380;2023-11-19T08:17:13;42.03;;;8.13;;
17892;SDS011;9072;51.918;4.380;2023-11-19T08:19:41;43.23;;;8.13;;
17892;SDS011;9072;51.918;4.380;2023-11-19T08:22:10;43.90;;;8.80;;
17892;SDS011;9072;51.918;4.380;2023-11-19T08:24:38;35.07;;;8.27;;
17892;SDS011;9072;51.918;4.380;2023-11-19T08:27:08;39.80;;;7.77;;
17892;SDS011;9072;51.918;4.380;2023-11-19T08:29:38;40.37;;;8.30;;
17892;SDS011;9072;51.918;4.380;2023-11-19T08:32:13;40.43;;;7.77;;
17892;SDS011;9072;51.918;4.380;2023-11-19T08:34:40;42.97;;;7.57;;
17892;SDS011;9072;51.918;4.380;2023-11-19T08:37:11;45.97;;;7.90;;
17892;SDS011;9072;51.918;4.380;2023-11-19T08:39:39;32.07;;;7.80;;
17892;SDS011;9072;51.918;4.380;2023-11-19T08:42:11;46.23;;;8.10;;
17892;SDS011;9072;51.918;4.380;2023-11-19T08:44:49;43.43;;;8.07;;
17892;SDS011;9072;51.918;4.380;2023-11-19T08:47:20;36.47;;;7.10;;
17892;SDS011;9072;51.918;4.380;2023-11-19T08:49:48;43.90;;;8.63;;
17892;SDS011;9072;51.918;4.380;2023-11-19T08:52:20;36.97;;;7.17;;
17892;SDS011;9072;51.918;4.380;2023-11-19T08:54:49;35.93;;;6.43;;
17892;SDS011;9072;51.918;4.380;2023-11-19T08:57:19;33.93;;;6.83;;
17892;SDS011;9072;51.918;4.380;2023-11-19T09:00:03;46.90;;;9.10;;
17892;SDS011;9072;51.918;4.380;2023-11-19T09:02:43;41.60;;;7.13;;
17892;SDS011;9072;51.918;4.380;2023-11-19T09:05:11;33.93;;;7.40;;
17892;SDS011;9072;51.918;4.380;2023-11-19T09:07:39;43.07;;;7.57;;
17892;SDS011;9072;51.918;4.380;2023-11-19T09:10:10;45.03;;;7.77;;
17892;SDS011;9072;51.918;4.380;2023-11-19T09:12:52;38.03;;;7.47;;
17892;SDS011;9072;51.918;4.380;2023-11-19T09:15:25;34.97;;;7.17;;
17892;SDS011;9072;51.918;4.380;2023-11-19T09:17:53;36.10;;;7.20;;
17892;SDS011;9072;51.918;4.380;2023-11-19T09:20:21;33.50;;;7.43;;
17892;SDS011;9072;51.918;4.380;2023-11-19T09:22:49;43.90;;;8.27;;
17892;SDS011;9072;51.918;4.380;2023-11-19T09:25:22;37.30;;;8.13;;
17892;SDS011;9072;51.918;4.380;2023-11-19T09:27:53;38.13;;;7.63;;
17892;SDS011;9072;51.918;4.380;2023-11-19T09:30:25;37.50;;;8.30;;
17892;SDS011;9072;51.918;4.380;2023-11-19T09:32:54;43.87;;;8.70;;
17892;SDS011;9072;51.918;4.380;2023-11-19T09:35:27;41.77;;;8.40;;
17892;SDS011;9072;51.918;4.380;2023-11-19T09:37:54;38.17;;;7.80;;
17892;SDS011;9072;51.918;4.380;2023-11-19T09:40:27;40.00;;;7.70;;
17892;SDS011;9072;51.918;4.380;2023-11-19T09:42:58;43.00;;;7.57;;
17892;SDS011;9072;51.918;4.380;2023-11-19T09:45:31;41.40;;;8.47;;
17892;SDS011;9072;51.918;4.380;2023-11-19T09:48:10;33.60;;;7.10;;
17892;SDS011;9072;51.918;4.380;2023-11-19T09:50:42;40.03;;;8.40;;
17892;SDS011;9072;51.918;4.380;2023-11-19T09:53:10;34.60;;;7.37;;
17892;SDS011;9072;51.918;4.380;2023-11-19T09:55:43;38.50;;;7.43;;
17892;SDS011;9072;51.918;4.380;2023-11-19T09:58:12;31.60;;;7.50;;
17892;SDS011;9072;51.918;4.380;2023-11-19T10:00:46;34.27;;;7.03;;
17892;SDS011;9072;51.918;4.380;2023-11-19T10:03:15;35.27;;;7.57;;
17892;SDS011;9072;51.918;4.380;2023-11-19T10:05:43;40.63;;;7.43;;
17892;SDS011;9072;51.918;4.380;2023-11-19T10:08:12;48.03;;;8.00;;
17892;SDS011;9072;51.918;4.380;2023-11-19T10:10:42;31.13;;;7.63;;
17892;SDS011;9072;51.918;4.380;2023-11-19T10:13:10;35.93;;;8.77;;
17892;SDS011;9072;51.918;4.380;2023-11-19T10:15:43;42.20;;;8.43;;
17892;SDS011;9072;51.918;4.380;2023-11-19T10:18:14;37.50;;;7.83;;
17892;SDS011;9072;51.918;4.380;2023-11-19T10:20:42;38.60;;;8.03;;
17892;SDS011;9072;51.918;4.380;2023-11-19T10:23:10;34.07;;;7.37;;
17892;SDS011;9072;51.918;4.380;2023-11-19T10:25:40;40.70;;;7.20;;
17892;SDS011;9072;51.918;4.380;2023-11-19T10:28:07;38.50;;;7.87;;
17892;SDS011;9072;51.918;4.380;2023-11-19T10:30:37;33.53;;;7.67;;
17892;SDS011;9072;51.918;4.380;2023-11-19T10:33:10;42.70;;;8.03;;
17892;SDS011;9072;51.918;4.380;2023-11-19T10:35:50;37.07;;;7.57;;
17892;SDS011;9072;51.918;4.380;2023-11-19T10:38:19;37.97;;;7.43;;
17892;SDS011;9072;51.918;4.380;2023-11-19T10:40:47;30.37;;;7.43;;
17892;SDS011;9072;51.918;4.380;2023-11-19T10:43:16;30.30;;;6.43;;
17892;SDS011;9072;51.918;4.380;2023-11-19T10:45:43;22.87;;;6.00;;
17892;SDS011;9072;51.918;4.380;2023-11-19T10:48:14;25.53;;;5.47;;
17892;SDS011;9072;51.918;4.380;2023-11-19T10:50:44;24.57;;;5.37;;
17892;SDS011;9072;51.918;4.380;2023-11-19T10:53:16;24.37;;;4.90;;
17892;SDS011;9072;51.918;4.380;2023-11-19T10:55:47;27.27;;;6.07;;
17892;SDS011;9072;51.918;4.380;2023-11-19T10:58:27;23.90;;;5.53;;
17892;SDS011;9072;51.918;4.380;2023-11-19T11:00:57;27.97;;;6.67;;
17892;SDS011;9072;51.918;4.380;2023-11-19T11:03:31;29.60;;;6.67;;
17892;SDS011;9072;51.918;4.380;2023-11-19T11:06:05;33.97;;;7.40;;
17892;SDS011;9072;51.918;4.380;2023-11-19T11:08:34;31.60;;;6.77;;
17892;SDS011;9072;51.918;4.380;2023-11-19T11:11:04;32.10;;;6.23;;
17892;SDS011;9072;51.918;4.380;2023-11-19T11:13:35;32.20;;;7.70;;
17892;SDS011;9072;51.918;4.380;2023-11-19T11:16:07;31.03;;;6.87;;
17892;SDS011;9072;51.918;4.380;2023-11-19T11:18:37;31.17;;;7.40;;
17892;SDS011;9072;51.918;4.380;2023-11-19T11:21:09;27.00;;;6.83;;
17892;SDS011;9072;51.918;4.380;2023-11-19T11:24:03;37.80;;;7.73;;
17892;SDS011;9072;51.918;4.380;2023-11-19T11:29:51;36.00;;;7.30;;
17892;SDS011;9072;51.918;4.380;2023-11-19T11:32:30;27.80;;;6.77;;
17892;SDS011;9072;51.918;4.380;2023-11-19T11:39:01;34.13;;;7.00;;
17892;SDS011;9072;51.918;4.380;2023-11-19T11:41:33;28.30;;;6.27;;
17892;SDS011;9072;51.918;4.380;2023-11-19T11:44:00;36.67;;;7.77;;
17892;SDS011;9072;51.918;4.380;2023-11-19T11:49:30;37.07;;;7.40;;
17892;SDS011;9072;51.918;4.380;2023-11-19T11:52:03;35.80;;;7.03;;
17892;SDS011;9072;51.918;4.380;2023-11-19T11:54:33;37.20;;;7.43;;
17892;SDS011;9072;51.918;4.380;2023-11-19T11:57:06;32.83;;;7.50;;
17892;SDS011;9072;51.918;4.380;2023-11-19T11:59:47;37.00;;;6.93;;
17892;SDS011;9072;51.918;4.380;2023-11-19T12:02:19;36.30;;;7.23;;
17892;SDS011;9072;51.918;4.380;2023-11-19T12:04:47;43.27;;;8.57;;
17892;SDS011;9072;51.918;4.380;2023-11-19T12:07:16;39.73;;;7.80;;
17892;SDS011;9072;51.918;4.380;2023-11-19T12:09:51;38.00;;;7.90;;
17892;SDS011;9072;51.918;4.380;2023-11-19T12:12:21;36.07;;;7.50;;
17892;SDS011;9072;51.918;4.380;2023-11-19T12:15:00;32.93;;;6.70;;
17892;SDS011;9072;51.918;4.380;2023-11-19T12:17:46;34.50;;;6.67;;
17892;SDS011;9072;51.918;4.380;2023-11-19T12:20:22;35.83;;;7.83;;
17892;SDS011;9072;51.918;4.380;2023-11-19T12:22:50;30.80;;;6.53;;
17892;SDS011;9072;51.918;4.380;2023-11-19T12:25:20;24.93;;;6.17;;
17892;SDS011;9072;51.918;4.380;2023-11-19T12:27:49;20.57;;;5.10;;
17892;SDS011;9072;51.918;4.380;2023-11-19T12:30:21;26.90;;;6.33;;
17892;SDS011;9072;51.918;4.380;2023-11-19T12:32:54;30.27;;;6.73;;
17892;SDS011;9072;51.918;4.380;2023-11-19T12:35:40;30.57;;;7.37;;
17892;SDS011;9072;51.918;4.380;2023-11-19T12:38:18;21.97;;;5.50;;
17892;SDS011;9072;51.918;4.380;2023-11-19T12:40:48;26.30;;;5.83;;
17892;SDS011;9072;51.918;4.380;2023-11-19T12:43:30;25.20;;;6.33;;
17892;SDS011;9072;51.918;4.380;2023-11-19T12:46:02;30.47;;;6.60;;
17892;SDS011;9072;51.918;4.380;2023-11-19T12:48:46;23.87;;;5.87;;
17892;SDS011;9072;51.918;4.380;2023-11-19T12:51:14;26.07;;;6.03;;
17892;SDS011;9072;51.918;4.380;2023-11-19T12:53:49;25.40;;;6.20;;
17892;SDS011;9072;51.918;4.380;2023-11-19T12:56:22;29.93;;;5.77;;
17892;SDS011;9072;51.918;4.380;2023-11-19T12:58:50;30.50;;;6.13;;
17892;SDS011;9072;51.918;4.380;2023-11-19T13:01:20;32.27;;;6.80;;
17892;SDS011;9072;51.918;4.380;2023-11-19T13:03:52;28.20;;;6.30;;
17892;SDS011;9072;51.918;4.380;2023-11-19T13:06:26;30.50;;;7.57;;
17892;SDS011;9072;51.918;4.380;2023-11-19T13:08:58;33.53;;;6.70;;
17892;SDS011;9072;51.918;4.380;2023-11-19T13:14:16;30.27;;;6.67;;
17892;SDS011;9072;51.918;4.380;2023-11-19T13:16:46;26.17;;;6.27;;
17892;SDS011;9072;51.918;4.380;2023-11-19T13:19:20;30.17;;;6.53;;
17892;SDS011;9072;51.918;4.380;2023-11-19T13:21:51;29.00;;;6.33;;
17892;SDS011;9072;51.918;4.380;2023-11-19T13:24:19;23.50;;;6.40;;
17892;SDS011;9072;51.918;4.380;2023-11-19T13:26:58;29.40;;;6.00;;
17892;SDS011;9072;51.918;4.380;2023-11-19T13:29:30;30.33;;;6.43;;
17892;SDS011;9072;51.918;4.380;2023-11-19T13:32:00;31.13;;;6.37;;
17892;SDS011;9072;51.918;4.380;2023-11-19T13:34:31;31.87;;;7.40;;
17892;SDS011;9072;51.918;4.380;2023-11-19T13:37:00;30.37;;;7.00;;
17892;SDS011;9072;51.918;4.380;2023-11-19T13:39:36;31.57;;;6.60;;
17892;SDS011;9072;51.918;4.380;2023-11-19T13:42:11;36.63;;;7.90;;
17892;SDS011;9072;51.918;4.380;2023-11-19T13:44:41;31.40;;;6.70;;
17892;SDS011;9072;51.918;4.380;2023-11-19T13:47:13;30.40;;;6.30;;
17892;SDS011;9072;51.918;4.380;2023-11-19T13:49:45;26.47;;;6.47;;
17892;SDS011;9072;51.918;4.380;2023-11-19T13:52:17;27.33;;;6.47;;
17892;SDS011;9072;51.918;4.380;2023-11-19T13:54:48;28.57;;;6.47;;
17892;SDS011;9072;51.918;4.380;2023-11-19T13:57:25;30.97;;;6.20;;
17892;SDS011;9072;51.918;4.380;2023-11-19T14:00:06;35.97;;;6.90;;
17892;SDS011;9072;51.918;4.380;2023-11-19T14:02:38;25.17;;;6.20;;
17892;SDS011;9072;51.918;4.380;2023-11-19T14:05:10;27.83;;;5.93;;
17892;SDS011;9072;51.918;4.380;2023-11-19T14:07:43;28.57;;;6.37;;
17892;SDS011;9072;51.918;4.380;2023-11-19T14:10:16;30.30;;;7.03;;
17892;SDS011;9072;51.918;4.380;2023-11-19T14:12:53;22.67;;;5.73;;
17892;SDS011;9072;51.918;4.380;2023-11-19T14:15:30;30.70;;;5.93;;
17892;SDS011;9072;51.918;4.380;2023-11-19T14:17:58;35.90;;;6.70;;
17892;SDS011;9072;51.918;4.380;2023-11-19T14:20:47;29.63;;;6.83;;
17892;SDS011;9072;51.918;4.380;2023-11-19T14:23:16;34.80;;;7.03;;
17892;SDS011;9072;51.918;4.380;2023-11-19T14:25:45;32.27;;;7.97;;
17892;SDS011;9072;51.918;4.380;2023-11-19T14:28:19;28.83;;;7.40;;
17892;SDS011;9072;51.918;4.380;2023-11-19T14:30:49;45.50;;;17.73;;
17892;SDS011;9072;51.918;4.380;2023-11-19T14:33:22;37.47;;;19.50;;
17892;SDS011;9072;51.918;4.380;2023-11-19T14:35:50;53.27;;;34.20;;
17892;SDS011;9072;51.918;4.380;2023-11-19T14:38:18;27.47;;;8.27;;
17892;SDS011;9072;51.918;4.380;2023-11-19T14:40:46;26.90;;;7.50;;
17892;SDS011;9072;51.918;4.380;2023-11-19T14:43:23;27.57;;;7.10;;
17892;SDS011;9072;51.918;4.380;2023-11-19T14:45:53;26.60;;;6.37;;
17892;SDS011;9072;51.918;4.380;2023-11-19T14:48:20;22.80;;;5.47;;
17892;SDS011;9072;51.918;4.380;2023-11-19T14:50:50;22.73;;;5.10;;
17892;SDS011;9072;51.918;4.380;2023-11-19T14:53:18;26.20;;;6.00;;
17892;SDS011;9072;51.918;4.380;2023-11-19T14:55:46;22.47;;;5.23;;
17892;SDS011;9072;51.918;4.380;2023-11-19T14:58:13;27.03;;;5.20;;
17892;SDS011;9072;51.918;4.380;2023-11-19T15:00:43;24.17;;;5.30;;
17892;SDS011;9072;51.918;4.380;2023-11-19T15:03:14;25.50;;;5.83;;
17892;SDS011;9072;51.918;4.380;2023-11-19T15:05:46;25.20;;;5.93;;
17892;SDS011;9072;51.918;4.380;2023-11-19T15:08:13;29.00;;;5.83;;
17892;SDS011;9072;51.918;4.380;2023-11-19T15:10:45;20.00;;;6.23;;
17892;SDS011;9072;51.918;4.380;2023-11-19T15:13:16;30.00;;;5.67;;
17892;SDS011;9072;51.918;4.380;2023-11-19T15:15:48;26.27;;;5.70;;
17892;SDS011;9072;51.918;4.380;2023-11-19T15:18:23;27.33;;;6.10;;
17892;SDS011;9072;51.918;4.380;2023-11-19T15:21:06;24.43;;;5.17;;